createdAt,value
2017-04-29T00:02:15.901Z,73.00
2017-04-29T00:04:43.445Z,73.00
2017-04-29T00:07:11.777Z,75.30
2017-04-29T00:09:39.708Z,74.70
2017-04-29T00:12:07.644Z,75.80
2017-04-29T00:14:35.220Z,75.80
2017-04-29T00:17:04.173Z,74.30
2017-04-29T00:19:32.147Z,74.60
2017-04-29T00:22:00.106Z,74.70
2017-04-29T00:24:28.016Z,74.70
2017-04-29T00:26:55.999Z,76.20
2017-04-29T00:29:24.324Z,75.30
2017-04-29T00:31:51.864Z,75.30
2017-04-29T00:34:19.425Z,74.80
2017-04-29T00:36:47.348Z,75.30
2017-04-29T00:39:15.328Z,75.30
2017-04-29T00:41:43.631Z,74.70
2017-04-29T00:44:11.200Z,74.70
2017-04-29T00:46:38.738Z,75.30
2017-04-29T00:49:06.677Z,74.90
2017-04-29T00:51:34.261Z,74.90
2017-04-29T00:54:02.205Z,76.30
2017-04-29T00:56:30.136Z,75.50
2017-04-29T00:58:58.101Z,75.30
2017-04-29T01:01:26.036Z,75.00
2017-04-29T01:03:54.348Z,75.70
2017-04-29T01:06:22.308Z,76.30
2017-04-29T01:08:50.266Z,75.80
2017-04-29T01:11:18.568Z,75.60
2017-04-29T01:13:46.538Z,76.80
2017-04-29T01:16:14.472Z,78.80
2017-04-29T01:18:42.784Z,81.90
2017-04-29T01:21:10.744Z,82.60
2017-04-29T01:23:38.695Z,85.80
2017-04-29T01:26:06.627Z,85.90
2017-04-29T01:28:34.597Z,86.70
2017-04-29T01:31:02.527Z,87.70
2017-04-29T01:33:30.468Z,87.40
2017-04-29T01:35:58.040Z,87.40
2017-04-29T01:38:25.975Z,88.70
2017-04-29T01:40:53.915Z,90.70
2017-04-29T01:43:21.877Z,92.10
2017-04-29T01:45:49.819Z,91.40
2017-04-29T01:48:18.130Z,92.50
2017-04-29T01:50:46.092Z,94.00
2017-04-29T01:53:14.025Z,94.10
2017-04-29T01:55:42.336Z,94.20
2017-04-29T01:58:09.903Z,94.20
2017-04-29T02:00:37.840Z,93.70
2017-04-29T02:03:06.147Z,94.30
2017-04-29T02:05:34.118Z,97.10
2017-04-29T02:08:01.668Z,97.10
2017-04-29T02:10:29.641Z,98.10
2017-04-29T02:12:57.776Z,99.00
2017-04-29T02:15:25.714Z,99.40
2017-04-29T02:17:53.652Z,99.00
2017-04-29T02:20:21.619Z,99.10
2017-04-29T02:22:49.555Z,98.90
2017-04-29T02:25:17.487Z,99.20
2017-04-29T02:27:45.464Z,99.10
2017-04-29T02:30:13.007Z,99.00
2017-04-29T02:32:40.943Z,99.00
2017-04-29T02:35:09.280Z,98.60
2017-04-29T02:37:37.221Z,99.00
2017-04-29T02:40:05.174Z,97.80
2017-04-29T02:42:33.508Z,95.60
2017-04-29T02:45:01.456Z,97.00
2017-04-29T02:47:29.390Z,96.30
2017-04-29T02:49:57.400Z,97.00
2017-04-29T02:52:25.339Z,96.80
2017-04-29T02:54:53.292Z,97.00
2017-04-29T02:57:21.632Z,96.20
2017-04-29T02:59:49.579Z,96.70
2017-04-29T03:02:17.512Z,97.70
2017-04-29T03:04:45.855Z,98.00
2017-04-29T03:07:13.833Z,96.50
2017-04-29T03:09:41.764Z,97.10
2017-04-29T03:12:09.728Z,96.90
2017-04-29T03:14:37.660Z,97.70
2017-04-29T03:17:05.569Z,97.80
2017-04-29T03:19:33.576Z,98.50
2017-04-29T03:22:01.509Z,98.70
2017-04-29T03:24:29.445Z,99.00
2017-04-29T03:26:57.783Z,99.10
2017-04-29T03:29:25.785Z,99.20
2017-04-29T03:31:53.325Z,99.20
2017-04-29T03:34:21.275Z,99.20
2017-04-29T03:36:49.217Z,98.90
2017-04-29T03:39:17.148Z,99.30
2017-04-29T03:41:45.104Z,98.10
2017-04-29T03:44:13.044Z,98.90
2017-04-29T03:46:40.976Z,98.60
2017-04-29T03:49:09.310Z,98.60
2017-04-29T03:51:37.249Z,99.10
2017-04-29T03:54:05.184Z,98.70
2017-04-29T03:56:33.145Z,98.90
2017-04-29T03:59:01.088Z,98.90
2017-04-29T04:01:28.631Z,98.90
2017-04-29T04:03:56.593Z,99.10
2017-04-29T04:06:24.132Z,99.10
2017-04-29T04:08:52.440Z,99.20
2017-04-29T04:11:20.000Z,99.20
2017-04-29T04:13:47.982Z,99.60
2017-04-29T04:16:15.921Z,99.40
2017-04-29T04:18:44.256Z,99.40
2017-04-29T04:21:12.196Z,99.60
2017-04-29T04:23:40.136Z,99.70
2017-04-29T04:26:08.468Z,99.50
2017-04-29T04:28:36.403Z,99.80
2017-04-29T04:31:04.339Z,99.90
2017-04-29T04:33:32.305Z,99.20
2017-04-29T04:36:00.247Z,98.90
2017-04-29T04:38:28.180Z,99.10
2017-04-29T04:40:56.146Z,98.50
2017-04-29T04:43:24.089Z,98.20
2017-04-29T04:45:52.396Z,98.50
2017-04-29T04:48:20.380Z,98.80
2017-04-29T04:50:48.324Z,98.80
2017-04-29T04:53:15.868Z,98.90
2017-04-29T04:55:43.841Z,98.10
2017-04-29T04:58:11.780Z,98.00
2017-04-29T05:00:39.721Z,97.90
2017-04-29T05:03:07.284Z,97.90
2017-04-29T05:05:34.827Z,97.30
2017-04-29T05:08:02.769Z,97.10
2017-04-29T05:10:30.742Z,97.00
2017-04-29T05:12:58.675Z,97.10
2017-04-29T05:15:26.612Z,97.30
2017-04-29T05:17:54.573Z,97.50
2017-04-29T05:20:22.509Z,97.50
2017-04-29T05:22:50.457Z,97.80
2017-04-29T05:25:18.428Z,98.20
2017-04-29T05:27:46.364Z,97.90
2017-04-29T05:30:14.295Z,96.00
2017-04-29T05:32:42.636Z,95.30
2017-04-29T05:35:10.580Z,94.50
2017-04-29T05:37:38.520Z,95.10
2017-04-29T05:40:06.483Z,92.00
2017-04-29T05:42:34.433Z,91.10
2017-04-29T05:45:01.980Z,91.10
2017-04-29T05:47:29.943Z,91.90
2017-04-29T05:49:57.875Z,89.70
2017-04-29T05:52:25.808Z,88.90
2017-04-29T05:54:53.389Z,88.90
2017-04-29T05:57:21.701Z,90.10
2017-04-29T05:59:49.636Z,90.50
2017-04-29T06:02:17.208Z,90.50
2017-04-29T06:04:45.516Z,89.40
2017-04-29T06:07:13.484Z,88.80
2017-04-29T06:09:41.456Z,87.50
2017-04-29T06:12:09.385Z,88.30
2017-04-29T06:14:37.313Z,87.70
2017-04-29T06:17:05.278Z,89.30
2017-04-29T06:19:33.212Z,88.60
2017-04-29T06:22:01.157Z,86.40
2017-04-29T06:24:29.115Z,85.40
2017-04-29T06:26:57.043Z,85.10
2017-04-29T06:29:24.980Z,82.10
2017-04-29T06:31:53.314Z,82.70
2017-04-29T06:34:21.252Z,79.60
2017-04-29T06:36:49.192Z,79.30
2017-04-29T06:39:17.143Z,79.70
2017-04-29T06:41:45.072Z,82.20
2017-04-29T06:44:13.009Z,81.30
2017-04-29T06:46:41.341Z,84.80
2017-04-29T06:49:09.275Z,81.40
2017-04-29T06:51:37.568Z,82.20
2017-04-29T06:54:05.128Z,82.20
2017-04-29T06:56:33.068Z,81.00
2017-04-29T06:59:01.376Z,81.30
2017-04-29T07:01:29.329Z,80.30
2017-04-29T07:03:57.648Z,79.00
2017-04-29T07:06:25.180Z,79.00
2017-04-29T07:08:53.143Z,78.60
2017-04-29T07:11:20.675Z,78.60
2017-04-29T07:13:48.607Z,77.90
2017-04-29T07:16:16.175Z,77.90
2017-04-29T07:18:44.107Z,78.40
2017-04-29T07:21:12.049Z,77.40
2017-04-29T07:23:39.627Z,77.50
2017-04-29T07:26:07.929Z,76.70
2017-04-29T07:28:35.476Z,76.70
2017-04-29T07:31:03.045Z,78.00
2017-04-29T07:33:30.977Z,75.80
2017-04-29T07:35:58.916Z,77.30
2017-04-29T07:38:26.884Z,76.90
2017-04-29T07:40:54.820Z,76.40
2017-04-29T07:43:22.752Z,77.60
2017-04-29T07:45:50.708Z,79.90
2017-04-29T07:48:18.641Z,78.40
2017-04-29T07:50:46.575Z,78.70
2017-04-29T07:53:14.959Z,78.20
2017-04-29T07:55:43.255Z,76.80
2017-04-29T07:58:11.199Z,81.50
2017-04-29T08:00:39.533Z,77.40
2017-04-29T08:03:07.468Z,77.80
2017-04-29T08:05:35.408Z,77.50
2017-04-29T08:08:03.369Z,76.30
2017-04-29T08:10:31.305Z,75.20
2017-04-29T08:12:58.845Z,75.20
2017-04-29T08:15:26.415Z,72.20
2017-04-29T08:17:54.372Z,71.70
2017-04-29T08:20:22.307Z,68.60
2017-04-29T08:22:50.269Z,68.90
2017-04-29T08:25:18.209Z,70.30
2017-04-29T08:27:46.146Z,69.60
2017-04-29T08:30:14.107Z,70.20
2017-04-29T08:32:42.416Z,69.50
2017-04-29T08:35:10.348Z,71.90
2017-04-29T08:37:38.685Z,71.20
2017-04-29T08:40:06.619Z,72.20
2017-04-29T08:42:34.560Z,70.10
2017-04-29T08:45:02.133Z,70.10
2017-04-29T08:47:30.431Z,66.80
2017-04-29T08:49:57.997Z,66.80
2017-04-29T08:52:25.936Z,66.00
2017-04-29T08:54:53.476Z,66.00
2017-04-29T08:57:21.435Z,62.90
2017-04-29T08:59:49.362Z,67.30
2017-04-29T09:02:16.909Z,67.30
2017-04-29T09:04:45.241Z,62.00
2017-04-29T09:07:13.169Z,63.10
2017-04-29T09:09:40.707Z,63.10
2017-04-29T09:12:09.052Z,65.70
2017-04-29T09:14:36.991Z,64.90
2017-04-29T09:17:04.928Z,64.30
2017-04-29T09:19:32.492Z,64.20
2017-04-29T09:22:00.036Z,67.00
2017-04-29T09:24:27.985Z,67.40
2017-04-29T09:26:55.981Z,66.00
2017-04-29T09:29:23.917Z,64.50
2017-04-29T09:31:51.852Z,62.10
2017-04-29T09:34:19.420Z,62.10
2017-04-29T09:36:47.357Z,62.10
2017-04-29T09:39:15.295Z,64.20
2017-04-29T09:41:43.256Z,64.80
2017-04-29T09:44:11.187Z,62.20
2017-04-29T09:46:39.157Z,60.80
2017-04-29T09:49:06.735Z,60.80
2017-04-29T09:51:34.275Z,58.90
2017-04-29T09:54:02.576Z,58.30
2017-04-29T09:56:30.143Z,58.30
2017-04-29T09:58:58.085Z,59.90
2017-04-29T10:01:26.042Z,61.90
2017-04-29T10:03:54.381Z,59.60
2017-04-29T10:06:22.316Z,64.00
2017-04-29T10:08:50.260Z,62.00
2017-04-29T10:11:18.591Z,58.60
2017-04-29T10:13:46.527Z,61.40
2017-04-29T10:16:14.069Z,61.40
2017-04-29T10:18:42.405Z,61.10
2017-04-29T10:21:10.347Z,58.30
2017-04-29T10:23:38.276Z,59.10
2017-04-29T10:26:06.232Z,58.30
2017-04-29T10:28:34.168Z,61.60
2017-04-29T10:31:02.106Z,63.60
2017-04-29T10:33:30.464Z,61.50
2017-04-29T10:35:58.032Z,61.50
2017-04-29T10:38:26.342Z,62.20
2017-04-29T10:40:54.275Z,61.70
2017-04-29T10:43:22.245Z,61.40
2017-04-29T10:45:50.201Z,58.60
2017-04-29T10:48:18.149Z,59.20
2017-04-29T10:50:45.723Z,59.20
2017-04-29T10:53:13.652Z,59.30
2017-04-29T10:55:41.586Z,60.30
2017-04-29T10:58:09.162Z,60.30
2017-04-29T11:00:37.487Z,58.20
2017-04-29T11:03:05.441Z,60.20
2017-04-29T11:05:33.020Z,60.30
2017-04-29T11:08:00.960Z,58.10
2017-04-29T11:10:28.914Z,62.30
2017-04-29T11:12:57.252Z,57.10
2017-04-29T11:15:25.196Z,59.10
2017-04-29T11:17:53.152Z,57.50
2017-04-29T11:20:21.083Z,55.80
2017-04-29T11:22:48.652Z,55.70
2017-04-29T11:25:16.955Z,57.90
2017-04-29T11:27:44.503Z,57.90
2017-04-29T11:30:12.831Z,59.40
2017-04-29T11:32:40.770Z,60.50
2017-04-29T11:35:08.704Z,61.20
2017-04-29T11:37:36.660Z,56.50
2017-04-29T11:40:04.604Z,55.80
2017-04-29T11:42:32.549Z,56.50
2017-04-29T11:45:00.516Z,55.10
2017-04-29T11:47:28.455Z,55.10
2017-04-29T11:49:56.777Z,56.30
2017-04-29T11:52:24.736Z,55.80
2017-04-29T11:54:52.293Z,55.70
2017-04-29T11:57:20.260Z,56.10
2017-04-29T11:59:47.821Z,56.10
2017-04-29T12:02:15.753Z,57.50
2017-04-29T12:04:43.712Z,57.60
2017-04-29T12:07:11.660Z,56.90
2017-04-29T12:09:39.207Z,56.90
2017-04-29T12:12:07.168Z,57.60
2017-04-29T12:14:35.100Z,59.30
2017-04-29T12:17:03.044Z,58.40
2017-04-29T12:19:31.020Z,58.40
2017-04-29T12:21:58.980Z,55.10
2017-04-29T12:24:26.917Z,53.80
2017-04-29T12:26:54.489Z,53.80
2017-04-29T12:29:22.416Z,51.80
2017-04-29T12:31:49.952Z,51.80
2017-04-29T12:34:17.912Z,55.60
2017-04-29T12:36:45.862Z,53.30
2017-04-29T12:39:13.950Z,53.50
2017-04-29T12:41:42.153Z,53.00
2017-04-29T12:44:09.705Z,53.00
2017-04-29T12:46:37.738Z,50.50
2017-04-29T12:49:05.703Z,50.20
2017-04-29T12:51:33.664Z,49.10
2017-04-29T12:54:02.077Z,52.80
2017-04-29T12:56:29.644Z,52.80
2017-04-29T12:58:57.606Z,52.30
2017-04-29T13:01:25.518Z,53.40
2017-04-29T13:03:53.508Z,51.10
2017-04-29T13:06:21.436Z,52.90
2017-04-29T13:08:49.409Z,50.30
2017-04-29T13:11:17.341Z,51.60
2017-04-29T13:13:45.274Z,53.00
2017-04-29T13:16:13.240Z,52.60
2017-04-29T13:18:41.177Z,55.10
2017-04-29T13:21:09.117Z,54.50
2017-04-29T13:23:37.076Z,51.70
2017-04-29T13:26:05.021Z,53.60
2017-04-29T13:28:32.970Z,53.60
2017-04-29T13:31:00.932Z,52.60
2017-04-29T13:33:28.868Z,52.30
2017-04-29T13:35:56.813Z,55.60
2017-04-29T13:38:24.389Z,55.60
2017-04-29T13:40:52.324Z,53.80
2017-04-29T13:43:19.882Z,53.80
2017-04-29T13:45:47.859Z,50.50
2017-04-29T13:48:15.791Z,52.40
2017-04-29T13:50:43.744Z,48.90
2017-04-29T13:53:11.322Z,48.90
2017-04-29T13:55:39.254Z,52.60
2017-04-29T13:58:06.795Z,52.60
2017-04-29T14:00:34.359Z,52.70
2017-04-29T14:03:02.676Z,50.80
2017-04-29T14:05:30.214Z,50.80
2017-04-29T14:07:58.544Z,51.10
2017-04-29T14:10:26.480Z,50.30
2017-04-29T14:12:54.416Z,48.90
2017-04-29T14:15:22.376Z,51.80
2017-04-29T14:17:50.314Z,50.30
2017-04-29T14:20:18.248Z,48.20
2017-04-29T14:22:46.215Z,48.40
2017-04-29T14:25:14.157Z,50.40
2017-04-29T14:27:42.101Z,49.10
2017-04-29T14:30:09.664Z,49.10
2017-04-29T14:32:37.600Z,49.70
2017-04-29T14:35:05.528Z,46.70
2017-04-29T14:37:33.479Z,48.10
2017-04-29T14:40:01.415Z,48.30
2017-04-29T14:42:29.381Z,48.30
2017-04-29T14:44:57.326Z,49.80
2017-04-29T14:47:25.636Z,49.20
2017-04-29T14:49:53.564Z,51.40
2017-04-29T14:52:21.887Z,51.50
2017-04-29T14:54:49.816Z,53.10
2017-04-29T14:57:18.124Z,51.80
2017-04-29T14:59:45.688Z,51.80
2017-04-29T15:02:13.235Z,51.70
2017-04-29T15:04:41.167Z,52.20
2017-04-29T15:07:09.128Z,51.50
2017-04-29T15:09:37.057Z,52.90
2017-04-29T15:12:04.992Z,53.10
2017-04-29T15:14:32.953Z,51.20
2017-04-29T15:17:00.888Z,51.30
2017-04-29T15:19:28.828Z,50.30
2017-04-29T15:21:56.787Z,50.00
2017-04-29T15:24:24.741Z,47.10
2017-04-29T15:26:52.293Z,47.10
2017-04-29T15:29:20.248Z,49.40
2017-04-29T15:31:48.185Z,48.10
2017-04-29T15:34:16.121Z,48.00
2017-04-29T15:36:43.685Z,48.00
2017-04-29T15:39:11.993Z,46.30
2017-04-29T15:41:39.924Z,47.30
2017-04-29T15:44:07.880Z,47.60
2017-04-29T15:46:35.823Z,48.40
2017-04-29T15:49:03.765Z,47.70
2017-04-29T15:51:31.722Z,51.30
2017-04-29T15:53:59.657Z,51.20
2017-04-29T15:56:27.587Z,49.20
2017-04-29T15:58:55.548Z,50.00
2017-04-29T16:01:23.479Z,48.60
2017-04-29T16:03:51.787Z,48.40
2017-04-29T16:06:19.747Z,50.80
2017-04-29T16:08:47.693Z,48.00
2017-04-29T16:11:15.652Z,47.80
2017-04-29T16:13:43.616Z,49.70
2017-04-29T16:16:11.546Z,49.40
2017-04-29T16:18:39.081Z,49.30
2017-04-29T16:21:07.408Z,50.00
2017-04-29T16:23:35.343Z,49.70
2017-04-29T16:26:03.275Z,49.70
2017-04-29T16:28:31.236Z,46.60
2017-04-29T16:30:59.172Z,48.20
2017-04-29T16:33:27.110Z,49.20
2017-04-29T16:35:55.801Z,48.80
2017-04-29T16:38:23.728Z,48.50
2017-04-29T16:40:51.665Z,49.10
2017-04-29T16:43:19.584Z,49.40
2017-04-29T16:45:47.557Z,51.10
2017-04-29T16:48:15.876Z,52.40
2017-04-29T16:50:43.819Z,53.30
2017-04-29T16:53:11.364Z,53.30
2017-04-29T16:55:39.260Z,48.20
2017-04-29T16:58:07.223Z,47.80
2017-04-29T17:00:35.515Z,48.20
2017-04-29T17:03:03.443Z,48.50
2017-04-29T17:05:31.408Z,52.60
2017-04-29T17:07:59.348Z,53.80
2017-04-29T17:10:26.893Z,53.80
2017-04-29T17:12:54.847Z,54.90
2017-04-29T17:15:22.788Z,54.50
2017-04-29T17:17:50.735Z,55.40
2017-04-29T17:20:18.700Z,54.00
2017-04-29T17:22:46.641Z,59.20
2017-04-29T17:25:14.581Z,55.60
2017-04-29T17:27:42.916Z,57.30
2017-04-29T17:30:10.853Z,56.30
2017-04-29T17:32:38.805Z,56.30
2017-04-29T17:35:07.141Z,56.30
2017-04-29T17:37:35.089Z,59.00
2017-04-29T17:40:02.624Z,59.00
2017-04-29T17:42:30.585Z,58.90
2017-04-29T17:44:58.900Z,58.70
2017-04-29T17:47:26.848Z,62.10
2017-04-29T17:49:54.415Z,62.10
2017-04-29T17:52:22.376Z,60.90
2017-04-29T17:54:50.328Z,62.90
2017-04-29T17:57:18.637Z,61.90
2017-04-29T17:59:46.604Z,63.50
2017-04-29T18:02:14.148Z,63.40
2017-04-29T18:04:42.093Z,61.40
2017-04-29T18:07:10.055Z,63.40
2017-04-29T18:09:38.001Z,61.80
2017-04-29T18:12:05.944Z,61.40
2017-04-29T18:14:33.937Z,60.80
2017-04-29T18:17:01.485Z,60.80
2017-04-29T18:19:29.020Z,60.90
2017-04-29T18:21:57.105Z,63.50
2017-04-29T18:24:25.039Z,59.70
2017-04-29T18:26:52.588Z,59.70
2017-04-29T18:29:20.549Z,59.80
2017-04-29T18:31:48.531Z,59.50
2017-04-29T18:34:16.485Z,63.30
2017-04-29T18:36:44.457Z,65.30
2017-04-29T18:39:12.400Z,64.40
2017-04-29T18:41:40.364Z,66.30
2017-04-29T18:44:08.376Z,67.90
2017-04-29T18:46:36.314Z,70.00
2017-04-29T18:49:04.297Z,69.90
2017-04-29T18:51:32.379Z,69.20
2017-04-29T18:54:00.414Z,69.70
2017-04-29T18:56:28.407Z,70.20
2017-04-29T18:58:56.352Z,71.00
2017-04-29T19:01:24.529Z,72.20
2017-04-29T19:03:52.580Z,71.80
2017-04-29T19:06:20.690Z,69.00
2017-04-29T19:08:48.811Z,71.20
2017-04-29T19:11:17.318Z,73.80
2017-04-29T19:13:45.507Z,69.90
2017-04-29T19:16:13.773Z,71.20
2017-04-29T19:18:42.124Z,71.30
2017-04-29T19:21:10.844Z,71.10
2017-04-29T19:23:39.382Z,72.80
2017-04-29T19:26:07.919Z,73.00
2017-04-29T19:28:36.312Z,74.30
2017-04-29T19:31:04.800Z,73.50
2017-04-29T19:33:33.551Z,72.70
2017-04-29T19:36:02.258Z,76.10
2017-04-29T19:38:31.018Z,73.50
2017-04-29T19:40:59.633Z,73.70
2017-04-29T19:43:28.151Z,70.00
2017-04-29T19:45:56.358Z,70.00
2017-04-29T19:48:24.787Z,73.70
2017-04-29T19:50:53.992Z,75.50
2017-04-29T19:53:23.843Z,75.70
2017-04-29T19:55:52.899Z,74.60
2017-04-29T19:58:22.239Z,75.70
2017-04-29T20:00:51.133Z,75.40
2017-04-29T20:03:20.041Z,74.90
2017-04-29T20:05:49.002Z,76.60
2017-04-29T20:08:17.881Z,76.80
2017-04-29T20:10:46.891Z,75.20
2017-04-29T20:13:15.800Z,76.00
2017-04-29T20:15:44.382Z,76.00
2017-04-29T20:18:13.334Z,75.70
2017-04-29T20:20:42.431Z,77.10
2017-04-29T20:23:11.828Z,77.00
2017-04-29T20:25:41.215Z,76.10
2017-04-29T20:28:10.107Z,76.70
2017-04-29T20:30:38.690Z,77.60
2017-04-29T20:33:07.605Z,78.30
2017-04-29T20:35:37.094Z,77.80
2017-04-29T20:38:05.944Z,79.00
2017-04-29T20:40:34.587Z,79.60
2017-04-29T20:43:03.186Z,80.10
2017-04-29T20:45:31.646Z,80.30
2017-04-29T20:47:59.958Z,80.60
2017-04-29T20:50:28.480Z,80.90
2017-04-29T20:52:56.377Z,80.90
2017-04-29T20:55:24.653Z,79.10
2017-04-29T20:57:52.968Z,79.60
2017-04-29T21:00:21.191Z,80.40
2017-04-29T21:02:48.789Z,80.40
2017-04-29T21:05:16.935Z,78.40
2017-04-29T21:07:44.915Z,76.80
2017-04-29T21:10:12.924Z,75.00
2017-04-29T21:12:41.176Z,74.30
2017-04-29T21:15:08.922Z,74.30
2017-04-29T21:17:36.916Z,77.50
2017-04-29T21:20:04.495Z,77.50
2017-04-29T21:22:32.058Z,78.20
2017-04-29T21:24:59.995Z,80.10
2017-04-29T21:27:27.961Z,81.60
2017-04-29T21:29:55.886Z,80.70
2017-04-29T21:32:23.821Z,80.70
2017-04-29T21:34:51.393Z,80.70
2017-04-29T21:37:19.324Z,79.70
2017-04-29T21:39:47.258Z,80.90
2017-04-29T21:42:15.220Z,80.70
2017-04-29T21:44:43.155Z,81.30
2017-04-29T21:47:11.088Z,82.70
2017-04-29T21:49:39.420Z,80.80
2017-04-29T21:52:07.351Z,82.10
2017-04-29T21:54:35.314Z,82.70
2017-04-29T21:57:03.617Z,83.50
2017-04-29T21:59:31.548Z,82.00
2017-04-29T22:01:59.881Z,80.60
2017-04-29T22:04:27.817Z,79.80
2017-04-29T22:06:55.754Z,82.60
2017-04-29T22:09:23.703Z,81.60
2017-04-29T22:11:51.639Z,82.20
2017-04-29T22:14:19.175Z,82.10
2017-04-29T22:16:47.144Z,83.90
2017-04-29T22:19:15.460Z,83.60
2017-04-29T22:21:43.028Z,83.60
2017-04-29T22:24:10.989Z,83.50
2017-04-29T22:26:38.915Z,81.20
2017-04-29T22:29:07.215Z,83.20
2017-04-29T22:31:35.167Z,83.80
2017-04-29T22:34:03.137Z,84.20
2017-04-29T22:36:30.671Z,84.20
2017-04-29T22:38:58.624Z,82.40
2017-04-29T22:41:26.555Z,82.80
2017-04-29T22:43:54.492Z,84.00
2017-04-29T22:46:22.064Z,84.00
2017-04-29T22:48:50.383Z,83.50
2017-04-29T22:51:18.313Z,83.00
2017-04-29T22:53:46.635Z,83.70
2017-04-29T22:56:14.568Z,84.50
2017-04-29T22:58:42.869Z,84.20
2017-04-29T23:01:10.828Z,85.00
2017-04-29T23:03:38.760Z,84.90
2017-04-29T23:06:06.321Z,84.90
2017-04-29T23:08:34.280Z,84.30
2017-04-29T23:11:02.223Z,83.90
2017-04-29T23:13:30.147Z,83.90
2017-04-29T23:15:58.472Z,84.20
2017-04-29T23:18:26.420Z,83.20
2017-04-29T23:20:54.351Z,84.30
2017-04-29T23:23:21.920Z,84.30
2017-04-29T23:25:50.252Z,84.80
2017-04-29T23:28:18.179Z,85.60
2017-04-29T23:30:46.519Z,85.60
2017-04-29T23:33:14.452Z,86.00
2017-04-29T23:35:42.388Z,86.50
2017-04-29T23:38:09.972Z,86.50
2017-04-29T23:40:38.272Z,86.70
2017-04-29T23:43:06.207Z,85.40
2017-04-29T23:45:34.548Z,85.10
2017-04-29T23:48:02.496Z,86.30
2017-04-29T23:50:30.435Z,84.30
2017-04-29T23:52:58.765Z,86.80
2017-04-29T23:55:26.695Z,85.60
2017-04-29T23:57:54.240Z,85.60
